sensor_id;sensor_type;location;lat;lon;timestamp;P1;durP1;ratioP1;P2;durP2;ratioP2
55483;SDS011;41345;51.704;5.146;2022-09-09T00:02:04;12.48;;;2.22;;
55483;SDS011;41345;51.704;5.146;2022-09-09T00:12:16;9.40;;;2.60;;
55483;SDS011;41345;51.704;5.146;2022-09-09T00:17:20;9.90;;;2.67;;
55483;SDS011;41345;51.704;5.146;2022-09-09T00:22:25;6.82;;;2.85;;
55483;SDS011;41345;51.704;5.146;2022-09-09T00:27:36;8.80;;;3.05;;
55483;SDS011;41345;51.704;5.146;2022-09-09T00:32:38;8.30;;;2.75;;
55483;SDS011;41345;51.704;5.146;2022-09-09T00:37:39;10.45;;;3.22;;
55483;SDS011;41345;51.704;5.146;2022-09-09T00:42:42;9.07;;;3.40;;
55483;SDS011;41345;51.704;5.146;2022-09-09T00:47:46;7.70;;;2.95;;
55483;SDS011;41345;51.704;5.146;2022-09-09T00:52:56;6.72;;;3.10;;
55483;SDS011;41345;51.704;5.146;2022-09-09T00:57:59;8.63;;;3.58;;
55483;SDS011;41345;51.704;5.146;2022-09-09T01:03:08;9.57;;;3.40;;
55483;SDS011;41345;51.704;5.146;2022-09-09T01:08:14;11.43;;;3.80;;
55483;SDS011;41345;51.704;5.146;2022-09-09T01:13:26;6.95;;;3.67;;
55483;SDS011;41345;51.704;5.146;2022-09-09T01:18:28;7.75;;;3.88;;
55483;SDS011;41345;51.704;5.146;2022-09-09T01:28:35;8.10;;;3.95;;
55483;SDS011;41345;51.704;5.146;2022-09-09T01:33:36;9.05;;;4.65;;
55483;SDS011;41345;51.704;5.146;2022-09-09T01:38:37;7.60;;;4.07;;
55483;SDS011;41345;51.704;5.146;2022-09-09T01:43:37;10.10;;;4.80;;
55483;SDS011;41345;51.704;5.146;2022-09-09T01:48:38;9.13;;;4.10;;
55483;SDS011;41345;51.704;5.146;2022-09-09T01:53:39;8.98;;;4.10;;
55483;SDS011;41345;51.704;5.146;2022-09-09T02:04:00;7.47;;;3.50;;
55483;SDS011;41345;51.704;5.146;2022-09-09T02:09:06;7.15;;;4.20;;
55483;SDS011;41345;51.704;5.146;2022-09-09T02:24:13;9.00;;;4.30;;
55483;SDS011;41345;51.704;5.146;2022-09-09T02:29:15;13.07;;;5.00;;
55483;SDS011;41345;51.704;5.146;2022-09-09T02:34:18;11.27;;;4.43;;
55483;SDS011;41345;51.704;5.146;2022-09-09T02:39:20;8.05;;;4.28;;
55483;SDS011;41345;51.704;5.146;2022-09-09T02:44:20;9.38;;;5.15;;
55483;SDS011;41345;51.704;5.146;2022-09-09T02:54:35;13.50;;;4.35;;
55483;SDS011;41345;51.704;5.146;2022-09-09T02:59:38;10.20;;;4.05;;
55483;SDS011;41345;51.704;5.146;2022-09-09T03:04:38;12.05;;;4.82;;
55483;SDS011;41345;51.704;5.146;2022-09-09T03:09:38;9.57;;;4.35;;
55483;SDS011;41345;51.704;5.146;2022-09-09T03:14:39;11.60;;;4.13;;
55483;SDS011;41345;51.704;5.146;2022-09-09T03:19:39;11.85;;;4.10;;
55483;SDS011;41345;51.704;5.146;2022-09-09T03:24:40;13.85;;;3.78;;
55483;SDS011;41345;51.704;5.146;2022-09-09T03:29:40;11.13;;;3.77;;
55483;SDS011;41345;51.704;5.146;2022-09-09T03:34:40;8.68;;;3.72;;
55483;SDS011;41345;51.704;5.146;2022-09-09T03:39:41;8.97;;;3.60;;
55483;SDS011;41345;51.704;5.146;2022-09-09T03:44:41;12.40;;;3.40;;
55483;SDS011;41345;51.704;5.146;2022-09-09T03:49:41;14.93;;;4.13;;
55483;SDS011;41345;51.704;5.146;2022-09-09T03:54:42;8.07;;;3.45;;
55483;SDS011;41345;51.704;5.146;2022-09-09T03:59:42;11.68;;;3.55;;
55483;SDS011;41345;51.704;5.146;2022-09-09T04:04:43;11.20;;;3.72;;
55483;SDS011;41345;51.704;5.146;2022-09-09T04:09:43;12.57;;;3.78;;
55483;SDS011;41345;51.704;5.146;2022-09-09T04:14:43;11.77;;;3.65;;
55483;SDS011;41345;51.704;5.146;2022-09-09T04:19:44;13.13;;;3.83;;
55483;SDS011;41345;51.704;5.146;2022-09-09T04:24:44;15.73;;;4.30;;
55483;SDS011;41345;51.704;5.146;2022-09-09T04:29:45;10.73;;;3.78;;
55483;SDS011;41345;51.704;5.146;2022-09-09T04:34:45;12.93;;;5.27;;
55483;SDS011;41345;51.704;5.146;2022-09-09T04:39:47;10.20;;;4.30;;
55483;SDS011;41345;51.704;5.146;2022-09-09T04:44:48;13.10;;;4.45;;
55483;SDS011;41345;51.704;5.146;2022-09-09T04:49:48;15.23;;;3.85;;
55483;SDS011;41345;51.704;5.146;2022-09-09T04:54:49;16.40;;;4.53;;
55483;SDS011;41345;51.704;5.146;2022-09-09T04:59:50;9.60;;;4.13;;
55483;SDS011;41345;51.704;5.146;2022-09-09T05:04:50;11.20;;;4.22;;
55483;SDS011;41345;51.704;5.146;2022-09-09T05:09:50;11.02;;;4.50;;
55483;SDS011;41345;51.704;5.146;2022-09-09T05:14:51;15.20;;;4.37;;
55483;SDS011;41345;51.704;5.146;2022-09-09T05:19:51;14.55;;;4.50;;
55483;SDS011;41345;51.704;5.146;2022-09-09T05:24:51;15.07;;;4.68;;
55483;SDS011;41345;51.704;5.146;2022-09-09T05:29:52;15.13;;;4.60;;
55483;SDS011;41345;51.704;5.146;2022-09-09T05:34:52;17.27;;;5.43;;
55483;SDS011;41345;51.704;5.146;2022-09-09T05:39:52;15.95;;;4.47;;
55483;SDS011;41345;51.704;5.146;2022-09-09T05:44:53;18.08;;;4.85;;
55483;SDS011;41345;51.704;5.146;2022-09-09T05:49:54;12.35;;;4.50;;
55483;SDS011;41345;51.704;5.146;2022-09-09T05:54:55;19.65;;;5.22;;
55483;SDS011;41345;51.704;5.146;2022-09-09T05:59:56;16.38;;;4.88;;
55483;SDS011;41345;51.704;5.146;2022-09-09T06:04:57;17.73;;;4.60;;
55483;SDS011;41345;51.704;5.146;2022-09-09T06:09:57;11.23;;;4.00;;
55483;SDS011;41345;51.704;5.146;2022-09-09T06:14:59;14.18;;;5.00;;
55483;SDS011;41345;51.704;5.146;2022-09-09T06:19:59;16.80;;;4.60;;
55483;SDS011;41345;51.704;5.146;2022-09-09T06:24:59;12.57;;;4.15;;
55483;SDS011;41345;51.704;5.146;2022-09-09T06:30:01;19.05;;;4.40;;
55483;SDS011;41345;51.704;5.146;2022-09-09T06:35:02;19.60;;;5.00;;
55483;SDS011;41345;51.704;5.146;2022-09-09T06:40:03;18.52;;;5.10;;
55483;SDS011;41345;51.704;5.146;2022-09-09T06:45:03;19.92;;;4.70;;
55483;SDS011;41345;51.704;5.146;2022-09-09T06:50:04;14.95;;;4.50;;
55483;SDS011;41345;51.704;5.146;2022-09-09T06:55:05;14.40;;;4.50;;
55483;SDS011;41345;51.704;5.146;2022-09-09T07:00:05;13.93;;;4.10;;
55483;SDS011;41345;51.704;5.146;2022-09-09T07:05:06;17.58;;;4.18;;
55483;SDS011;41345;51.704;5.146;2022-09-09T07:10:08;16.10;;;3.72;;
55483;SDS011;41345;51.704;5.146;2022-09-09T07:15:08;15.77;;;4.10;;
55483;SDS011;41345;51.704;5.146;2022-09-09T07:20:09;12.45;;;3.42;;
55483;SDS011;41345;51.704;5.146;2022-09-09T07:25:10;12.85;;;4.25;;
55483;SDS011;41345;51.704;5.146;2022-09-09T07:30:11;13.65;;;4.22;;
55483;SDS011;41345;51.704;5.146;2022-09-09T07:35:11;12.88;;;3.80;;
55483;SDS011;41345;51.704;5.146;2022-09-09T07:40:12;14.25;;;3.88;;
55483;SDS011;41345;51.704;5.146;2022-09-09T07:45:12;15.50;;;4.03;;
55483;SDS011;41345;51.704;5.146;2022-09-09T07:50:14;11.38;;;3.90;;
55483;SDS011;41345;51.704;5.146;2022-09-09T07:55:15;14.77;;;3.45;;
55483;SDS011;41345;51.704;5.146;2022-09-09T08:00:15;13.73;;;3.23;;
55483;SDS011;41345;51.704;5.146;2022-09-09T08:05:15;10.77;;;3.13;;
55483;SDS011;41345;51.704;5.146;2022-09-09T08:10:18;8.65;;;3.08;;
55483;SDS011;41345;51.704;5.146;2022-09-09T08:15:18;12.23;;;2.47;;
55483;SDS011;41345;51.704;5.146;2022-09-09T08:20:18;12.40;;;2.35;;
55483;SDS011;41345;51.704;5.146;2022-09-09T08:25:18;10.95;;;2.70;;
55483;SDS011;41345;51.704;5.146;2022-09-09T08:30:19;14.57;;;2.75;;
55483;SDS011;41345;51.704;5.146;2022-09-09T08:35:19;13.73;;;2.90;;
55483;SDS011;41345;51.704;5.146;2022-09-09T08:40:22;13.15;;;2.80;;
55483;SDS011;41345;51.704;5.146;2022-09-09T08:50:29;12.82;;;2.65;;
55483;SDS011;41345;51.704;5.146;2022-09-09T09:16:23;14.30;;;2.42;;
55483;SDS011;41345;51.704;5.146;2022-09-09T09:21:48;11.02;;;2.40;;
55483;SDS011;41345;51.704;5.146;2022-09-09T09:26:50;12.68;;;2.58;;
55483;SDS011;41345;51.704;5.146;2022-09-09T09:31:52;11.40;;;2.42;;
55483;SDS011;41345;51.704;5.146;2022-09-09T09:36:56;11.37;;;2.70;;
55483;SDS011;41345;51.704;5.146;2022-09-09T09:41:56;11.30;;;2.22;;
55483;SDS011;41345;51.704;5.146;2022-09-09T09:47:08;10.18;;;2.33;;
55483;SDS011;41345;51.704;5.146;2022-09-09T09:52:12;12.48;;;2.70;;
55483;SDS011;41345;51.704;5.146;2022-09-09T09:57:16;10.82;;;2.80;;
55483;SDS011;41345;51.704;5.146;2022-09-09T10:02:22;9.82;;;3.03;;
55483;SDS011;41345;51.704;5.146;2022-09-09T10:07:26;12.27;;;3.50;;
55483;SDS011;41345;51.704;5.146;2022-09-09T10:12:36;9.63;;;2.75;;
55483;SDS011;41345;51.704;5.146;2022-09-09T10:17:41;12.18;;;3.50;;
55483;SDS011;41345;51.704;5.146;2022-09-09T10:22:44;11.60;;;3.25;;
55483;SDS011;41345;51.704;5.146;2022-09-09T10:48:28;11.30;;;2.80;;
55483;SDS011;41345;51.704;5.146;2022-09-09T10:53:40;12.30;;;3.42;;
55483;SDS011;41345;51.704;5.146;2022-09-09T11:04:08;12.75;;;3.50;;
55483;SDS011;41345;51.704;5.146;2022-09-09T11:09:20;10.82;;;3.35;;
55483;SDS011;41345;51.704;5.146;2022-09-09T11:14:24;13.00;;;3.33;;
55483;SDS011;41345;51.704;5.146;2022-09-09T11:24:47;11.60;;;3.50;;
55483;SDS011;41345;51.704;5.146;2022-09-09T11:35:10;11.75;;;4.03;;
55483;SDS011;41345;51.704;5.146;2022-09-09T11:45:22;13.40;;;3.50;;
55483;SDS011;41345;51.704;5.146;2022-09-09T11:55:28;13.70;;;3.83;;
55483;SDS011;41345;51.704;5.146;2022-09-09T12:05:38;11.20;;;3.45;;
55483;SDS011;41345;51.704;5.146;2022-09-09T12:10:39;12.52;;;3.47;;
55483;SDS011;41345;51.704;5.146;2022-09-09T12:15:46;12.23;;;3.90;;
55483;SDS011;41345;51.704;5.146;2022-09-09T12:31:18;9.68;;;2.85;;
55483;SDS011;41345;51.704;5.146;2022-09-09T12:36:23;16.23;;;3.83;;
55483;SDS011;41345;51.704;5.146;2022-09-09T12:41:25;9.15;;;2.63;;
55483;SDS011;41345;51.704;5.146;2022-09-09T12:51:36;9.63;;;3.03;;
55483;SDS011;41345;51.704;5.146;2022-09-09T12:56:37;10.40;;;2.90;;
55483;SDS011;41345;51.704;5.146;2022-09-09T13:01:37;9.63;;;3.10;;
55483;SDS011;41345;51.704;5.146;2022-09-09T13:06:38;9.27;;;3.40;;
55483;SDS011;41345;51.704;5.146;2022-09-09T13:11:39;8.37;;;2.60;;
55483;SDS011;41345;51.704;5.146;2022-09-09T13:16:56;8.55;;;2.83;;
55483;SDS011;41345;51.704;5.146;2022-09-09T13:21:57;8.52;;;2.65;;
55483;SDS011;41345;51.704;5.146;2022-09-09T13:26:58;7.30;;;2.30;;
55483;SDS011;41345;51.704;5.146;2022-09-09T13:32:21;8.38;;;3.17;;
55483;SDS011;41345;51.704;5.146;2022-09-09T13:37:31;5.72;;;2.10;;
55483;SDS011;41345;51.704;5.146;2022-09-09T13:42:41;6.55;;;2.20;;
55483;SDS011;41345;51.704;5.146;2022-09-09T13:47:42;7.40;;;1.90;;
55483;SDS011;41345;51.704;5.146;2022-09-09T13:52:43;8.05;;;1.88;;
55483;SDS011;41345;51.704;5.146;2022-09-09T13:57:53;6.97;;;1.70;;
55483;SDS011;41345;51.704;5.146;2022-09-09T14:02:53;5.75;;;1.65;;
55483;SDS011;41345;51.704;5.146;2022-09-09T14:07:55;6.50;;;1.70;;
55483;SDS011;41345;51.704;5.146;2022-09-09T14:12:55;6.57;;;2.00;;
55483;SDS011;41345;51.704;5.146;2022-09-09T14:17:56;6.43;;;1.60;;
55483;SDS011;41345;51.704;5.146;2022-09-09T14:22:56;5.15;;;1.50;;
55483;SDS011;41345;51.704;5.146;2022-09-09T14:27:58;5.15;;;1.25;;
55483;SDS011;41345;51.704;5.146;2022-09-09T14:32:58;4.25;;;1.52;;
55483;SDS011;41345;51.704;5.146;2022-09-09T14:37:59;3.38;;;1.23;;
55483;SDS011;41345;51.704;5.146;2022-09-09T14:43:01;3.15;;;1.00;;
55483;SDS011;41345;51.704;5.146;2022-09-09T14:48:02;3.15;;;1.23;;
55483;SDS011;41345;51.704;5.146;2022-09-09T14:53:03;3.17;;;1.10;;
55483;SDS011;41345;51.704;5.146;2022-09-09T14:58:03;3.70;;;1.15;;
55483;SDS011;41345;51.704;5.146;2022-09-09T15:03:03;4.28;;;1.38;;
55483;SDS011;41345;51.704;5.146;2022-09-09T15:08:04;5.15;;;1.48;;
55483;SDS011;41345;51.704;5.146;2022-09-09T15:13:04;6.73;;;1.77;;
55483;SDS011;41345;51.704;5.146;2022-09-09T15:18:04;6.00;;;1.60;;
55483;SDS011;41345;51.704;5.146;2022-09-09T15:23:05;6.63;;;1.90;;
55483;SDS011;41345;51.704;5.146;2022-09-09T15:28:05;4.80;;;1.83;;
55483;SDS011;41345;51.704;5.146;2022-09-09T15:33:09;5.88;;;2.00;;
55483;SDS011;41345;51.704;5.146;2022-09-09T15:38:09;5.50;;;1.83;;
55483;SDS011;41345;51.704;5.146;2022-09-09T15:43:09;8.00;;;2.03;;
55483;SDS011;41345;51.704;5.146;2022-09-09T15:48:10;5.55;;;2.25;;
55483;SDS011;41345;51.704;5.146;2022-09-09T15:53:11;4.80;;;1.83;;
55483;SDS011;41345;51.704;5.146;2022-09-09T15:58:11;5.87;;;1.70;;
55483;SDS011;41345;51.704;5.146;2022-09-09T16:03:12;6.45;;;1.38;;
55483;SDS011;41345;51.704;5.146;2022-09-09T16:08:12;3.08;;;1.10;;
55483;SDS011;41345;51.704;5.146;2022-09-09T16:13:13;2.75;;;0.93;;
55483;SDS011;41345;51.704;5.146;2022-09-09T16:18:13;4.40;;;1.20;;
55483;SDS011;41345;51.704;5.146;2022-09-09T16:23:14;4.38;;;1.00;;
55483;SDS011;41345;51.704;5.146;2022-09-09T16:28:14;5.18;;;1.20;;
55483;SDS011;41345;51.704;5.146;2022-09-09T16:33:15;6.50;;;1.80;;
55483;SDS011;41345;51.704;5.146;2022-09-09T16:38:16;5.00;;;1.58;;
55483;SDS011;41345;51.704;5.146;2022-09-09T16:43:16;3.88;;;1.45;;
55483;SDS011;41345;51.704;5.146;2022-09-09T16:48:17;5.53;;;2.00;;
55483;SDS011;41345;51.704;5.146;2022-09-09T16:53:17;5.03;;;1.60;;
55483;SDS011;41345;51.704;5.146;2022-09-09T16:58:17;7.00;;;2.03;;
55483;SDS011;41345;51.704;5.146;2022-09-09T17:03:17;4.20;;;1.47;;
55483;SDS011;41345;51.704;5.146;2022-09-09T17:08:18;8.02;;;1.80;;
55483;SDS011;41345;51.704;5.146;2022-09-09T17:13:18;6.18;;;1.80;;
55483;SDS011;41345;51.704;5.146;2022-09-09T17:18:19;6.68;;;2.13;;
55483;SDS011;41345;51.704;5.146;2022-09-09T17:23:20;5.72;;;2.00;;
55483;SDS011;41345;51.704;5.146;2022-09-09T17:28:21;6.80;;;2.30;;
55483;SDS011;41345;51.704;5.146;2022-09-09T17:33:26;5.70;;;2.42;;
55483;SDS011;41345;51.704;5.146;2022-09-09T17:38:28;5.85;;;2.30;;
55483;SDS011;41345;51.704;5.146;2022-09-09T17:43:28;7.80;;;2.63;;
55483;SDS011;41345;51.704;5.146;2022-09-09T17:48:29;7.00;;;2.35;;
55483;SDS011;41345;51.704;5.146;2022-09-09T17:53:30;6.93;;;2.55;;
55483;SDS011;41345;51.704;5.146;2022-09-09T17:58:30;6.22;;;2.60;;
55483;SDS011;41345;51.704;5.146;2022-09-09T18:03:33;7.65;;;2.50;;
55483;SDS011;41345;51.704;5.146;2022-09-09T18:08:33;5.47;;;2.50;;
55483;SDS011;41345;51.704;5.146;2022-09-09T18:13:34;10.10;;;2.85;;
55483;SDS011;41345;51.704;5.146;2022-09-09T18:18:35;5.88;;;2.75;;
55483;SDS011;41345;51.704;5.146;2022-09-09T18:23:36;8.43;;;3.17;;
55483;SDS011;41345;51.704;5.146;2022-09-09T18:28:37;7.88;;;3.13;;
55483;SDS011;41345;51.704;5.146;2022-09-09T18:33:38;8.52;;;3.90;;
55483;SDS011;41345;51.704;5.146;2022-09-09T18:38:40;7.65;;;3.22;;
55483;SDS011;41345;51.704;5.146;2022-09-09T18:43:41;9.27;;;3.72;;
55483;SDS011;41345;51.704;5.146;2022-09-09T18:48:42;7.50;;;3.58;;
55483;SDS011;41345;51.704;5.146;2022-09-09T18:53:56;7.90;;;3.40;;
55483;SDS011;41345;51.704;5.146;2022-09-09T18:58:57;9.00;;;4.65;;
55483;SDS011;41345;51.704;5.146;2022-09-09T19:03:58;8.90;;;3.60;;
55483;SDS011;41345;51.704;5.146;2022-09-09T19:08:59;10.80;;;4.38;;
55483;SDS011;41345;51.704;5.146;2022-09-09T19:14:00;9.87;;;4.20;;
55483;SDS011;41345;51.704;5.146;2022-09-09T19:19:02;9.50;;;4.60;;
55483;SDS011;41345;51.704;5.146;2022-09-09T19:24:22;11.48;;;4.70;;
55483;SDS011;41345;51.704;5.146;2022-09-09T19:29:24;13.40;;;5.47;;
55483;SDS011;41345;51.704;5.146;2022-09-09T19:34:25;8.85;;;4.72;;
55483;SDS011;41345;51.704;5.146;2022-09-09T19:39:25;12.00;;;6.10;;
55483;SDS011;41345;51.704;5.146;2022-09-09T19:44:26;10.85;;;6.38;;
55483;SDS011;41345;51.704;5.146;2022-09-09T19:49:26;11.77;;;6.37;;
55483;SDS011;41345;51.704;5.146;2022-09-09T19:54:26;11.17;;;6.80;;
55483;SDS011;41345;51.704;5.146;2022-09-09T19:59:27;11.90;;;6.38;;
55483;SDS011;41345;51.704;5.146;2022-09-09T20:04:27;10.77;;;5.70;;
55483;SDS011;41345;51.704;5.146;2022-09-09T20:09:27;11.90;;;7.20;;
55483;SDS011;41345;51.704;5.146;2022-09-09T20:14:29;11.30;;;7.10;;
55483;SDS011;41345;51.704;5.146;2022-09-09T20:19:29;12.73;;;7.57;;
55483;SDS011;41345;51.704;5.146;2022-09-09T20:24:30;15.43;;;7.55;;
55483;SDS011;41345;51.704;5.146;2022-09-09T20:29:30;14.77;;;8.10;;
55483;SDS011;41345;51.704;5.146;2022-09-09T20:34:30;16.15;;;10.15;;
55483;SDS011;41345;51.704;5.146;2022-09-09T20:39:30;13.32;;;8.80;;
55483;SDS011;41345;51.704;5.146;2022-09-09T20:44:31;16.15;;;9.35;;
55483;SDS011;41345;51.704;5.146;2022-09-09T20:49:31;13.85;;;10.07;;
55483;SDS011;41345;51.704;5.146;2022-09-09T20:54:34;14.63;;;9.50;;
55483;SDS011;41345;51.704;5.146;2022-09-09T20:59:36;16.52;;;10.70;;
55483;SDS011;41345;51.704;5.146;2022-09-09T21:04:36;15.00;;;9.65;;
55483;SDS011;41345;51.704;5.146;2022-09-09T21:09:37;11.98;;;7.75;;
55483;SDS011;41345;51.704;5.146;2022-09-09T21:14:38;13.85;;;7.15;;
55483;SDS011;41345;51.704;5.146;2022-09-09T21:19:38;14.13;;;7.30;;
55483;SDS011;41345;51.704;5.146;2022-09-09T21:24:39;15.57;;;6.70;;
55483;SDS011;41345;51.704;5.146;2022-09-09T21:29:39;13.23;;;5.90;;
55483;SDS011;41345;51.704;5.146;2022-09-09T21:34:40;10.40;;;4.88;;
55483;SDS011;41345;51.704;5.146;2022-09-09T21:39:41;13.25;;;5.13;;
55483;SDS011;41345;51.704;5.146;2022-09-09T21:44:41;13.20;;;5.13;;
55483;SDS011;41345;51.704;5.146;2022-09-09T21:49:42;11.30;;;4.70;;
55483;SDS011;41345;51.704;5.146;2022-09-09T21:54:42;10.90;;;4.50;;
55483;SDS011;41345;51.704;5.146;2022-09-09T21:59:43;11.10;;;4.32;;
55483;SDS011;41345;51.704;5.146;2022-09-09T22:04:43;12.80;;;4.13;;
55483;SDS011;41345;51.704;5.146;2022-09-09T22:09:43;11.17;;;3.83;;
55483;SDS011;41345;51.704;5.146;2022-09-09T22:14:44;12.00;;;3.70;;
55483;SDS011;41345;51.704;5.146;2022-09-09T22:19:45;12.82;;;3.50;;
55483;SDS011;41345;51.704;5.146;2022-09-09T22:24:45;13.80;;;3.05;;
55483;SDS011;41345;51.704;5.146;2022-09-09T22:29:45;10.38;;;2.85;;
55483;SDS011;41345;51.704;5.146;2022-09-09T22:34:45;13.88;;;2.88;;
55483;SDS011;41345;51.704;5.146;2022-09-09T22:39:46;9.18;;;2.92;;
55483;SDS011;41345;51.704;5.146;2022-09-09T22:44:48;12.75;;;2.65;;
55483;SDS011;41345;51.704;5.146;2022-09-09T22:49:48;9.82;;;2.72;;
55483;SDS011;41345;51.704;5.146;2022-09-09T22:54:48;12.10;;;2.70;;
55483;SDS011;41345;51.704;5.146;2022-09-09T22:59:49;11.57;;;2.93;;
55483;SDS011;41345;51.704;5.146;2022-09-09T23:04:49;11.45;;;3.08;;
55483;SDS011;41345;51.704;5.146;2022-09-09T23:09:51;11.23;;;3.38;;
55483;SDS011;41345;51.704;5.146;2022-09-09T23:14:51;13.73;;;3.80;;
55483;SDS011;41345;51.704;5.146;2022-09-09T23:19:53;13.75;;;4.13;;
55483;SDS011;41345;51.704;5.146;2022-09-09T23:24:55;13.25;;;3.90;;
55483;SDS011;41345;51.704;5.146;2022-09-09T23:29:56;14.88;;;4.00;;
55483;SDS011;41345;51.704;5.146;2022-09-09T23:34:57;12.73;;;4.10;;
55483;SDS011;41345;51.704;5.146;2022-09-09T23:39:57;13.90;;;5.13;;
55483;SDS011;41345;51.704;5.146;2022-09-09T23:44:58;13.35;;;4.95;;
55483;SDS011;41345;51.704;5.146;2022-09-09T23:49:58;16.02;;;5.55;;
55483;SDS011;41345;51.704;5.146;2022-09-09T23:54:58;15.53;;;5.57;;
55483;SDS011;41345;51.704;5.146;2022-09-09T23:59:59;16.73;;;5.55;;
